Terminal Aerodrome Forecast
Issued by NWS Milwaukee/Sullivan, WI

Home | Current Version | Previous Version | Text Only | Print | Product List | Glossary On
Versions: 1 2 3 4 5 6 7 8 9 10 11 12 13 14 15 16 17 18 19 20 21 22 23 24 25 26 27 28
000
FTUS43 KMKX 190520
TAFMSN
TAF
KMSN 190520Z 1906/2006 11009KT P6SM BKN200
     FM191500 14015KT P6SM SCT150
     FM191900 16015G22KT P6SM SKC
     FM192300 16011KT P6SM OVC250=

USA.gov is the U.S. government's official web portal to all federal, state and local government web resources and services.